Terminal Aerodrome Forecast
Issued by NWS

Home | Current Version | Previous Version | Graphics & Text | Print | Product List | Glossary On
Versions: 1 2 3 4 5 6 7 8 9 10 11 12 13 14 15 16 17 18 19 20 21 22 23 24 25 26
000
FTUS43 KICT 250949 AAA
TAFHUT
TAF AMD
KHUT 250949Z 2510/2606 VRB15KT 5SM TSRA SCT004 BKN008 OVC060CB
     FM251100 04006KT P6SM BKN007 OVC020
     FM252200 05008KT P6SM VCTS BKN035CB=

USA.gov is the U.S. government's official web portal to all federal, state and local government web resources and services.